Time,TemperatureF,DewpointF,PressureIn,WindDirection,WindDirectionDegrees,WindSpeedMPH,WindSpeedGustMPH,Humidity,HourlyPrecipIn,Conditions,Clouds,dailyrainin,SoftwareType,DateUTC
2013-06-07 00:01:00,59.3,49.1,29.84,NE,36,3.0,4.0,69,0.00,,,0.00,Wunderground v.1.12,2013-06-07 04:01:00,
2013-06-07 00:02:00,59.3,49.1,29.84,NNE,24,6.0,6.0,69,0.00,,,0.00,Wunderground v.1.12,2013-06-07 04:02:00,
2013-06-07 00:06:00,59.3,49.1,29.84,ENE,65,3.0,3.0,69,0.00,,,0.00,Wunderground v.1.12,2013-06-07 04:06:00,
2013-06-07 00:07:00,59.3,49.1,29.84,NNE,17,1.0,3.0,69,0.00,,,0.00,Wunderground v.1.12,2013-06-07 04:07:00,
2013-06-07 00:09:00,59.3,49.1,29.84,NNE,14,6.0,6.0,69,0.00,,,0.00,Wunderground v.1.12,2013-06-07 04:09:00,
2013-06-07 00:14:00,59.2,49.0,29.84,NNE,27,1.0,5.0,69,0.00,,,0.00,Wunderground v.1.12,2013-06-07 04:14:00,
2013-06-07 00:20:00,59.2,49.4,29.84,NNE,27,1.0,2.0,70,0.00,,,0.00,Wunderground v.1.12,2013-06-07 04:20:00,
2013-06-07 00:25:00,59.2,49.4,29.84,NNE,19,7.0,7.0,70,0.00,,,0.00,Wunderground v.1.12,2013-06-07 04:25:00,
2013-06-07 00:30:00,59.0,49.2,29.83,NE,38,0.0,2.0,70,0.00,,,0.00,Wunderground v.1.12,2013-06-07 04:30:00,
2013-06-07 00:35:00,59.0,49.6,29.83,NE,39,4.0,4.0,71,0.00,,,0.00,Wunderground v.1.12,2013-06-07 04:35:00,
2013-06-07 00:41:00,58.9,49.5,29.83,North,6,1.0,4.0,71,0.00,,,0.00,Wunderground v.1.12,2013-06-07 04:41:00,
2013-06-07 00:47:00,58.7,49.3,29.83,North,8,1.0,2.0,71,0.00,,,0.00,Wunderground v.1.12,2013-06-07 04:47:00,
2013-06-07 00:52:00,58.7,49.3,29.83,North,356,2.0,3.0,71,0.00,,,0.00,Wunderground v.1.12,2013-06-07 04:52:00,
2013-06-07 00:59:00,58.6,49.2,29.83,North,358,3.0,3.0,71,0.00,,,0.00,Wunderground v.1.12,2013-06-07 04:59:00,
2013-06-07 01:04:00,58.4,49.0,29.83,North,358,1.0,3.0,71,0.00,,,0.00,Wunderground v.1.12,2013-06-07 05:04:00,
2013-06-07 01:10:00,58.1,49.1,29.83,North,358,0.0,1.0,72,0.00,,,0.00,Wunderground v.1.12,2013-06-07 05:10:00,
2013-06-07 01:15:00,58.0,49.0,29.83,North,358,0.0,1.0,72,0.00,,,0.00,Wunderground v.1.12,2013-06-07 05:15:00,
2013-06-07 01:21:00,57.6,48.6,29.83,North,358,0.0,0.0,72,0.00,,,0.00,Wunderground v.1.12,2013-06-07 05:21:00,
2013-06-07 01:26:00,57.3,48.7,29.83,North,358,0.0,0.0,73,0.00,,,0.00,Wunderground v.1.12,2013-06-07 05:26:00,
2013-06-07 01:32:00,57.0,48.8,29.83,North,358,0.0,4.0,74,0.00,,,0.00,Wunderground v.1.12,2013-06-07 05:32:00,
2013-06-07 01:39:00,56.6,48.8,29.83,North,358,0.0,1.0,75,0.00,,,0.00,Wunderground v.1.12,2013-06-07 05:39:00,
2013-06-07 01:44:00,56.3,48.5,29.83,North,358,0.0,0.0,75,0.00,,,0.00,Wunderground v.1.12,2013-06-07 05:44:00,
2013-06-07 01:49:00,56.0,48.5,29.83,North,358,0.0,0.0,76,0.00,,,0.00,Wunderground v.1.12,2013-06-07 05:49:00,
2013-06-07 01:55:00,55.6,48.5,29.83,North,358,1.0,1.0,77,0.00,,,0.00,Wunderground v.1.12,2013-06-07 05:55:00,
2013-06-07 02:01:00,55.4,48.7,29.83,North,358,1.0,1.0,78,0.00,,,0.00,Wunderground v.1.12,2013-06-07 06:01:00,
2013-06-07 02:06:00,55.1,48.7,29.83,North,358,2.0,2.0,79,0.00,,,0.00,Wunderground v.1.12,2013-06-07 06:06:00,
2013-06-07 02:11:00,55.0,48.9,29.83,North,358,2.0,2.0,80,0.00,,,0.00,Wunderground v.1.12,2013-06-07 06:11:00,
2013-06-07 02:16:00,54.8,49.1,29.83,North,358,0.0,1.0,81,0.00,,,0.00,Wunderground v.1.12,2013-06-07 06:16:00,
2013-06-07 02:21:00,54.5,48.8,29.83,North,358,0.0,2.0,81,0.00,,,0.00,Wunderground v.1.12,2013-06-07 06:21:00,
2013-06-07 02:26:00,54.4,48.7,29.83,North,358,0.0,3.0,81,0.00,,,0.00,Wunderground v.1.12,2013-06-07 06:26:00,
2013-06-07 02:31:00,54.1,48.4,29.83,North,358,0.0,2.0,81,0.00,,,0.00,Wunderground v.1.12,2013-06-07 06:31:00,
2013-06-07 02:37:00,53.9,48.2,29.83,North,358,0.0,0.0,81,0.00,,,0.00,Wunderground v.1.12,2013-06-07 06:37:00,
2013-06-07 02:42:00,53.8,48.4,29.83,North,358,0.0,0.0,82,0.00,,,0.00,Wunderground v.1.12,2013-06-07 06:42:00,
2013-06-07 02:47:00,53.5,48.1,29.83,North,358,0.0,0.0,82,0.00,,,0.00,Wunderground v.1.12,2013-06-07 06:47:00,
2013-06-07 02:52:00,53.3,48.3,29.83,North,358,0.0,0.0,83,0.00,,,0.00,Wunderground v.1.12,2013-06-07 06:52:00,
2013-06-07 02:57:00,53.2,48.2,29.83,North,358,0.0,1.0,83,0.00,,,0.00,Wunderground v.1.12,2013-06-07 06:57:00,
2013-06-07 03:02:00,53.1,48.4,29.83,North,358,0.0,0.0,84,0.00,,,0.00,Wunderground v.1.12,2013-06-07 07:02:00,
2013-06-07 03:07:00,52.9,48.5,29.83,North,358,0.0,2.0,85,0.00,,,0.00,Wunderground v.1.12,2013-06-07 07:07:00,
2013-06-07 03:12:00,52.8,48.4,29.83,North,358,0.0,2.0,85,0.00,,,0.00,Wunderground v.1.12,2013-06-07 07:12:00,
2013-06-07 03:17:00,52.6,48.2,29.83,North,358,1.0,3.0,85,0.00,,,0.00,Wunderground v.1.12,2013-06-07 07:17:00,
2013-06-07 03:22:00,52.8,48.7,29.83,North,358,0.0,1.0,86,0.00,,,0.00,Wunderground v.1.12,2013-06-07 07:22:00,
2013-06-07 03:27:00,52.6,48.5,29.82,North,358,0.0,1.0,86,0.00,,,0.00,Wunderground v.1.12,2013-06-07 07:27:00,
2013-06-07 03:32:00,52.5,48.4,29.82,North,358,0.0,1.0,86,0.00,,,0.00,Wunderground v.1.12,2013-06-07 07:32:00,
2013-06-07 03:37:00,52.3,48.5,29.82,North,358,1.0,2.0,87,0.00,,,0.00,Wunderground v.1.12,2013-06-07 07:37:00,
2013-06-07 03:42:00,52.2,48.4,29.82,North,358,2.0,2.0,87,0.00,,,0.00,Wunderground v.1.12,2013-06-07 07:42:00,
2013-06-07 03:47:00,52.2,48.8,29.82,North,355,1.0,3.0,88,0.00,,,0.00,Wunderground v.1.12,2013-06-07 07:47:00,
2013-06-07 03:52:00,52.2,48.8,29.82,North,355,1.0,2.0,88,0.00,,,0.00,Wunderground v.1.12,2013-06-07 07:52:00,
2013-06-07 03:57:00,52.2,48.8,29.81,North,356,0.0,3.0,88,0.00,,,0.00,Wunderground v.1.12,2013-06-07 07:57:00,
2013-06-07 04:02:00,52.0,48.6,29.81,North,356,0.0,1.0,88,0.00,,,0.00,Wunderground v.1.12,2013-06-07 08:02:00,
2013-06-07 04:07:00,51.9,48.5,29.81,North,356,0.0,0.0,88,0.00,,,0.00,Wunderground v.1.12,2013-06-07 08:07:00,
2013-06-07 04:12:00,51.7,48.3,29.82,North,356,0.0,1.0,88,0.00,,,0.00,Wunderground v.1.12,2013-06-07 08:12:00,
2013-06-07 04:17:00,51.6,48.2,29.82,North,356,0.0,2.0,88,0.00,,,0.00,Wunderground v.1.12,2013-06-07 08:17:00,
2013-06-07 04:22:00,51.4,48.3,29.82,North,356,0.0,1.0,89,0.00,,,0.00,Wunderground v.1.12,2013-06-07 08:22:00,
2013-06-07 04:27:00,51.4,48.3,29.82,North,356,0.0,0.0,89,0.00,,,0.00,Wunderground v.1.12,2013-06-07 08:27:00,
2013-06-07 04:32:00,51.3,48.2,29.82,North,356,0.0,0.0,89,0.00,,,0.00,Wunderground v.1.12,2013-06-07 08:32:00,
2013-06-07 04:37:00,51.1,48.0,29.82,North,356,0.0,2.0,89,0.00,,,0.00,Wunderground v.1.12,2013-06-07 08:37:00,
2013-06-07 04:42:00,51.0,48.2,29.82,North,356,0.0,3.0,90,0.00,,,0.00,Wunderground v.1.12,2013-06-07 08:42:00,
2013-06-07 04:47:00,51.0,48.2,29.82,North,356,0.0,0.0,90,0.00,,,0.00,Wunderground v.1.12,2013-06-07 08:47:00,
2013-06-07 04:52:00,51.0,48.2,29.82,North,356,0.0,0.0,90,0.00,,,0.00,Wunderground v.1.12,2013-06-07 08:52:00,
2013-06-07 04:57:00,51.0,48.2,29.83,North,356,0.0,1.0,90,0.00,,,0.00,Wunderground v.1.12,2013-06-07 08:57:00,
2013-06-07 05:02:00,50.8,48.0,29.83,North,356,2.0,3.0,90,0.00,,,0.00,Wunderground v.1.12,2013-06-07 09:02:00,
2013-06-07 05:07:00,50.8,48.3,29.83,North,356,1.0,1.0,91,0.00,,,0.00,Wunderground v.1.12,2013-06-07 09:07:00,
2013-06-07 05:12:00,50.8,48.3,29.83,North,357,0.0,4.0,91,0.00,,,0.00,Wunderground v.1.12,2013-06-07 09:12:00,
2013-06-07 05:17:00,50.8,48.3,29.83,North,357,0.0,2.0,91,0.00,,,0.00,Wunderground v.1.12,2013-06-07 09:17:00,
2013-06-07 05:22:00,51.0,48.5,29.83,North,356,0.0,2.0,91,0.00,,,0.00,Wunderground v.1.12,2013-06-07 09:22:00,
2013-06-07 05:27:00,51.0,48.8,29.83,North,356,3.0,3.0,92,0.00,,,0.00,Wunderground v.1.12,2013-06-07 09:27:00,
2013-06-07 05:32:00,51.1,48.9,29.83,North,356,0.0,2.0,92,0.00,,,0.00,Wunderground v.1.12,2013-06-07 09:32:00,
2013-06-07 05:37:00,51.1,48.9,29.83,North,354,4.0,4.0,92,0.00,,,0.00,Wunderground v.1.12,2013-06-07 09:37:00,
2013-06-07 05:42:00,51.4,49.2,29.83,North,354,2.0,4.0,92,0.00,,,0.00,Wunderground v.1.12,2013-06-07 09:42:00,
2013-06-07 05:47:00,51.7,49.5,29.83,North,355,5.0,5.0,92,0.00,,,0.00,Wunderground v.1.12,2013-06-07 09:47:00,
2013-06-07 05:52:00,52.2,50.2,29.83,North,352,2.0,3.0,93,0.00,,,0.00,Wunderground v.1.12,2013-06-07 09:52:00,
2013-06-07 05:57:00,52.3,50.3,29.83,North,352,3.0,3.0,93,0.00,,,0.00,Wunderground v.1.12,2013-06-07 09:57:00,
2013-06-07 06:02:00,52.6,50.3,29.83,North,352,1.0,2.0,92,0.00,,,0.00,Wunderground v.1.12,2013-06-07 10:02:00,
2013-06-07 06:07:00,52.8,50.5,29.83,NNW,339,5.0,6.0,92,0.00,,,0.00,Wunderground v.1.12,2013-06-07 10:07:00,
2013-06-07 06:12:00,53.1,50.8,29.83,North,350,4.0,7.0,92,0.00,,,0.00,Wunderground v.1.12,2013-06-07 10:12:00,
2013-06-07 06:17:00,53.3,50.7,29.83,North,352,3.0,6.0,91,0.00,,,0.00,Wunderground v.1.12,2013-06-07 10:17:00,
2013-06-07 06:22:00,53.5,50.6,29.83,NW,312,4.0,8.0,90,0.00,,,0.00,Wunderground v.1.12,2013-06-07 10:22:00,
2013-06-07 06:27:00,53.6,50.7,29.83,North,356,1.0,6.0,90,0.00,,,0.00,Wunderground v.1.12,2013-06-07 10:27:00,
2013-06-07 06:32:00,53.8,50.6,29.83,NNE,28,3.0,9.0,89,0.00,,,0.00,Wunderground v.1.12,2013-06-07 10:32:00,
2013-06-07 06:37:00,53.8,50.3,29.83,NNE,29,7.0,7.0,88,0.00,,,0.00,Wunderground v.1.12,2013-06-07 10:37:00,
2013-06-07 06:42:00,53.9,50.4,29.83,NNW,334,5.0,8.0,88,0.00,,,0.00,Wunderground v.1.12,2013-06-07 10:42:00,
2013-06-07 06:47:00,53.9,50.1,29.83,NE,37,2.0,8.0,87,0.00,,,0.00,Wunderground v.1.12,2013-06-07 10:47:00,
2013-06-07 06:52:00,53.9,50.1,29.83,NNE,21,2.0,9.0,87,0.00,,,0.00,Wunderground v.1.12,2013-06-07 10:52:00,
2013-06-07 06:57:00,54.1,50.3,29.83,North,354,2.0,7.0,87,0.00,,,0.00,Wunderground v.1.12,2013-06-07 10:57:00,
2013-06-07 07:04:00,54.1,50.0,29.83,NE,56,3.0,7.0,86,0.00,,,0.00,Wunderground v.1.12,2013-06-07 11:04:00,
2013-06-07 07:09:00,54.1,50.0,29.83,NNE,31,5.0,9.0,86,0.00,,,0.00,Wunderground v.1.12,2013-06-07 11:09:00,
2013-06-07 07:14:00,54.1,50.0,29.83,NNW,337,4.0,7.0,86,0.00,,,0.00,Wunderground v.1.12,2013-06-07 11:14:00,
2013-06-07 07:20:00,54.2,50.1,29.83,NNE,31,5.0,5.0,86,0.00,,,0.00,Wunderground v.1.12,2013-06-07 11:20:00,
2013-06-07 07:25:00,54.2,49.8,29.83,North,5,0.0,3.0,85,0.00,,,0.00,Wunderground v.1.12,2013-06-07 11:25:00,
2013-06-07 07:30:00,54.2,49.8,29.84,NE,42,1.0,3.0,85,0.00,,,0.00,Wunderground v.1.12,2013-06-07 11:30:00,
2013-06-07 07:35:00,54.4,50.0,29.84,NE,56,5.0,5.0,85,0.00,,,0.00,Wunderground v.1.12,2013-06-07 11:35:00,
2013-06-07 07:40:00,54.4,50.0,29.84,NNE,19,7.0,7.0,85,0.00,,,0.00,Wunderground v.1.12,2013-06-07 11:40:00,
2013-06-07 07:45:00,54.4,50.0,29.84,NNE,26,3.0,7.0,85,0.00,,,0.00,Wunderground v.1.12,2013-06-07 11:45:00,
2013-06-07 07:50:00,54.4,50.0,29.84,NNE,19,4.0,4.0,85,0.00,,,0.00,Wunderground v.1.12,2013-06-07 11:50:00,
2013-06-07 07:55:00,54.4,50.0,29.84,NNE,31,3.0,4.0,85,0.00,,,0.00,Wunderground v.1.12,2013-06-07 11:55:00,
2013-06-07 08:00:00,54.4,50.0,29.84,East,83,6.0,6.0,85,0.00,,,0.00,Wunderground v.1.12,2013-06-07 12:00:00,
2013-06-07 08:05:00,54.5,50.1,29.84,NE,42,9.0,9.0,85,0.00,,,0.00,Wunderground v.1.12,2013-06-07 12:05:00,
2013-06-07 08:10:00,54.4,50.0,29.84,NE,56,2.0,4.0,85,0.00,,,0.00,Wunderground v.1.12,2013-06-07 12:10:00,
2013-06-07 08:15:00,54.5,49.8,29.84,ENE,59,3.0,5.0,84,0.00,,,0.00,Wunderground v.1.12,2013-06-07 12:15:00,
2013-06-07 08:20:00,54.5,49.8,29.84,NE,42,4.0,6.0,84,0.00,,,0.00,Wunderground v.1.12,2013-06-07 12:20:00,
2013-06-07 08:25:00,54.7,50.0,29.84,NNE,17,8.0,8.0,84,0.00,,,0.00,Wunderground v.1.12,2013-06-07 12:25:00,
2013-06-07 08:30:00,54.7,50.0,29.84,NNE,18,4.0,5.0,84,0.00,,,0.00,Wunderground v.1.12,2013-06-07 12:30:00,
2013-06-07 08:35:00,54.7,49.6,29.84,NNW,335,4.0,4.0,83,0.00,,,0.00,Wunderground v.1.12,2013-06-07 12:35:00,
2013-06-07 08:40:00,54.7,50.0,29.84,North,360,4.0,4.0,84,0.00,,,0.00,Wunderground v.1.12,2013-06-07 12:40:00,
2013-06-07 08:45:00,54.7,50.0,29.85,North,356,4.0,5.0,84,0.00,,,0.00,Wunderground v.1.12,2013-06-07 12:45:00,
2013-06-07 08:50:00,54.7,50.0,29.85,NNW,344,3.0,6.0,84,0.00,,,0.00,Wunderground v.1.12,2013-06-07 12:50:00,
2013-06-07 08:55:00,54.7,50.0,29.85,NNW,332,3.0,7.0,84,0.00,,,0.00,Wunderground v.1.12,2013-06-07 12:55:00,
2013-06-07 09:00:00,54.7,50.0,29.84,NE,39,2.0,3.0,84,0.00,,,0.00,Wunderground v.1.12,2013-06-07 13:00:00,
2013-06-07 09:05:00,54.8,50.1,29.84,NNW,341,3.0,4.0,84,0.00,,,0.00,Wunderground v.1.12,2013-06-07 13:05:00,
2013-06-07 09:10:00,54.8,49.7,29.84,NE,35,2.0,6.0,83,0.00,,,0.00,Wunderground v.1.12,2013-06-07 13:10:00,
2013-06-07 09:15:00,54.7,50.0,29.86,NE,42,2.0,5.0,84,0.00,,,0.00,Wunderground v.1.12,2013-06-07 13:15:00,
2013-06-07 09:20:00,54.5,49.8,29.86,NE,39,5.0,8.0,84,0.00,,,0.00,Wunderground v.1.12,2013-06-07 13:20:00,
2013-06-07 09:26:00,54.5,49.8,29.86,NNE,17,4.0,4.0,84,0.00,,,0.00,Wunderground v.1.12,2013-06-07 13:26:00,
2013-06-07 09:31:00,54.5,49.8,29.86,NNE,25,4.0,4.0,84,0.00,,,0.00,Wunderground v.1.12,2013-06-07 13:31:00,
2013-06-07 09:36:00,54.5,49.8,29.86,NE,37,2.0,8.0,84,0.00,,,0.00,Wunderground v.1.12,2013-06-07 13:36:00,
2013-06-07 09:41:00,54.5,49.4,29.86,NE,54,6.0,8.0,83,0.00,,,0.00,Wunderground v.1.12,2013-06-07 13:41:00,
2013-06-07 09:46:00,54.5,49.8,29.86,North,349,6.0,7.0,84,0.00,,,0.00,Wunderground v.1.12,2013-06-07 13:46:00,
2013-06-07 09:51:00,54.5,49.4,29.86,NNW,338,4.0,7.0,83,0.00,,,0.00,Wunderground v.1.12,2013-06-07 13:51:00,
2013-06-07 09:56:00,54.5,49.4,29.86,NNE,25,4.0,4.0,83,0.00,,,0.00,Wunderground v.1.12,2013-06-07 13:56:00,
2013-06-07 10:01:00,54.5,49.4,29.86,NNE,30,2.0,5.0,83,0.00,,,0.00,Wunderground v.1.12,2013-06-07 14:01:00,
2013-06-07 10:06:00,54.7,49.6,29.86,NNE,31,3.0,8.0,83,0.00,,,0.00,Wunderground v.1.12,2013-06-07 14:06:00,
2013-06-07 10:11:00,54.8,49.4,29.86,NE,48,6.0,6.0,82,0.00,,,0.00,Wunderground v.1.12,2013-06-07 14:11:00,
2013-06-07 10:16:00,54.7,49.3,29.86,NNE,25,0.0,5.0,82,0.00,,,0.00,Wunderground v.1.12,2013-06-07 14:16:00,
2013-06-07 10:21:00,54.8,49.4,29.86,NE,42,0.0,4.0,82,0.00,,,0.00,Wunderground v.1.12,2013-06-07 14:21:00,
2013-06-07 10:26:00,54.8,49.4,29.86,NNE,27,6.0,7.0,82,0.00,,,0.00,Wunderground v.1.12,2013-06-07 14:26:00,
2013-06-07 10:31:00,55.0,49.9,29.86,ENE,62,0.0,3.0,83,0.00,,,0.00,Wunderground v.1.12,2013-06-07 14:31:00,
2013-06-07 10:37:00,55.1,49.7,29.86,NE,48,2.0,2.0,82,0.00,,,0.00,Wunderground v.1.12,2013-06-07 14:37:00,
2013-06-07 10:42:00,55.3,49.9,29.86,North,356,2.0,6.0,82,0.00,,,0.00,Wunderground v.1.12,2013-06-07 14:42:00,
2013-06-07 10:47:00,55.3,49.9,29.86,NNW,342,5.0,5.0,82,0.00,,,0.00,Wunderground v.1.12,2013-06-07 14:47:00,
2013-06-07 10:52:00,55.3,49.6,29.86,NNW,337,2.0,6.0,81,0.00,,,0.00,Wunderground v.1.12,2013-06-07 14:52:00,
2013-06-07 10:57:00,55.3,49.6,29.86,NNW,340,2.0,4.0,81,0.00,,,0.00,Wunderground v.1.12,2013-06-07 14:57:00,
2013-06-07 11:02:00,55.1,49.7,29.86,NNE,14,2.0,6.0,82,0.00,,,0.00,Wunderground v.1.12,2013-06-07 15:02:00,
2013-06-07 11:07:00,55.1,49.7,29.86,NNW,335,6.0,6.0,82,0.00,,,0.00,Wunderground v.1.12,2013-06-07 15:07:00,
2013-06-07 11:12:00,55.3,49.9,29.86,NNW,342,3.0,5.0,82,0.00,,,0.00,Wunderground v.1.12,2013-06-07 15:12:00,
2013-06-07 11:17:00,55.4,50.0,29.86,NNE,21,1.0,7.0,82,0.00,,,0.00,Wunderground v.1.12,2013-06-07 15:17:00,
2013-06-07 11:22:00,55.6,49.9,29.86,North,355,5.0,5.0,81,0.00,,,0.00,Wunderground v.1.12,2013-06-07 15:22:00,
2013-06-07 11:27:00,55.4,49.7,29.86,NNE,21,3.0,7.0,81,0.00,,,0.00,Wunderground v.1.12,2013-06-07 15:27:00,
2013-06-07 11:32:00,55.6,49.9,29.86,NNE,33,0.0,4.0,81,0.00,,,0.00,Wunderground v.1.12,2013-06-07 15:32:00,
2013-06-07 11:37:00,55.6,49.9,29.86,North,356,3.0,6.0,81,0.00,,,0.00,Wunderground v.1.12,2013-06-07 15:37:00,
2013-06-07 11:42:00,55.7,50.0,29.86,NNE,26,3.0,6.0,81,0.00,,,0.00,Wunderground v.1.12,2013-06-07 15:42:00,
2013-06-07 11:47:00,56.0,49.9,29.86,North,356,2.0,7.0,80,0.00,,,0.00,Wunderground v.1.12,2013-06-07 15:47:00,
2013-06-07 11:52:00,56.0,49.6,29.86,NNW,347,0.0,3.0,79,0.00,,,0.00,Wunderground v.1.12,2013-06-07 15:52:00,
2013-06-07 11:57:00,56.3,49.9,29.86,North,358,0.0,5.0,79,0.00,,,0.00,Wunderground v.1.12,2013-06-07 15:57:00,
2013-06-07 12:02:00,56.6,49.8,29.86,NNW,347,6.0,8.0,78,0.00,,,0.00,Wunderground v.1.12,2013-06-07 16:02:00,
2013-06-07 12:07:00,56.9,50.1,29.86,North,351,2.0,7.0,78,0.00,,,0.00,Wunderground v.1.12,2013-06-07 16:07:00,
2013-06-07 12:12:00,57.3,50.8,29.86,WNW,291,2.0,5.0,79,0.00,,,0.00,Wunderground v.1.12,2013-06-07 16:12:00,
2013-06-07 12:17:00,58.0,51.2,29.86,NNW,343,3.0,6.0,78,0.00,,,0.00,Wunderground v.1.12,2013-06-07 16:17:00,
2013-06-07 12:22:00,58.1,50.6,29.86,NNW,346,1.0,7.0,76,0.00,,,0.00,Wunderground v.1.12,2013-06-07 16:22:00,
2013-06-07 12:27:00,58.4,50.5,29.85,NW,318,4.0,8.0,75,0.00,,,0.00,Wunderground v.1.12,2013-06-07 16:27:00,
2013-06-07 12:33:00,58.9,51.0,29.85,North,4,3.0,10.0,75,0.00,,,0.00,Wunderground v.1.12,2013-06-07 16:33:00,
2013-06-07 12:39:00,59.2,51.3,29.85,North,356,5.0,5.0,75,0.00,,,0.00,Wunderground v.1.12,2013-06-07 16:39:00,
2013-06-07 12:44:00,59.3,51.0,29.86,NW,323,1.0,8.0,74,0.00,,,0.00,Wunderground v.1.12,2013-06-07 16:44:00,
2013-06-07 12:49:00,59.3,51.0,29.86,North,350,4.0,8.0,74,0.00,,,0.00,Wunderground v.1.12,2013-06-07 16:49:00,
2013-06-07 12:54:00,59.3,51.0,29.86,North,357,4.0,8.0,74,0.00,,,0.00,Wunderground v.1.12,2013-06-07 16:54:00,
2013-06-07 12:59:00,59.3,51.0,29.85,NNE,33,6.0,6.0,74,0.00,,,0.00,Wunderground v.1.12,2013-06-07 16:59:00,
2013-06-07 13:04:00,59.5,51.2,29.85,North,350,2.0,7.0,74,0.00,,,0.00,Wunderground v.1.12,2013-06-07 17:04:00,
2013-06-07 13:09:00,59.6,51.3,29.85,NNE,17,4.0,9.0,74,0.00,,,0.00,Wunderground v.1.12,2013-06-07 17:09:00,
2013-06-07 13:15:00,59.5,50.8,29.85,NNW,347,2.0,4.0,73,0.00,,,0.00,Wunderground v.1.12,2013-06-07 17:15:00,
2013-06-07 13:20:00,59.5,51.2,29.85,North,359,3.0,4.0,74,0.00,,,0.00,Wunderground v.1.12,2013-06-07 17:20:00,
2013-06-07 13:25:00,59.5,51.2,29.85,NNW,339,6.0,7.0,74,0.00,,,0.00,Wunderground v.1.12,2013-06-07 17:25:00,
2013-06-07 13:30:00,59.6,51.3,29.84,NE,37,4.0,6.0,74,0.00,,,0.00,Wunderground v.1.12,2013-06-07 17:30:00,
2013-06-07 13:35:00,59.5,51.2,29.84,North,349,6.0,6.0,74,0.00,,,0.00,Wunderground v.1.12,2013-06-07 17:35:00,
2013-06-07 13:40:00,59.5,51.6,29.84,NNW,331,1.0,4.0,75,0.00,,,0.00,Wunderground v.1.12,2013-06-07 17:40:00,
2013-06-07 13:45:00,59.8,51.9,29.84,NNE,33,2.0,4.0,75,0.00,,,0.00,Wunderground v.1.12,2013-06-07 17:45:00,
2013-06-07 13:50:00,59.9,51.6,29.84,North,11,6.0,7.0,74,0.00,,,0.00,Wunderground v.1.12,2013-06-07 17:50:00,
2013-06-07 13:55:00,59.8,51.5,29.84,North,356,4.0,4.0,74,0.00,,,0.00,Wunderground v.1.12,2013-06-07 17:55:00,
2013-06-07 14:00:00,59.5,51.6,29.84,NNW,341,5.0,5.0,75,0.00,,,0.00,Wunderground v.1.12,2013-06-07 18:00:00,
2013-06-07 14:06:00,59.5,51.9,29.84,NNW,327,5.0,6.0,76,0.00,,,0.00,Wunderground v.1.12,2013-06-07 18:06:00,
2013-06-07 14:11:00,59.3,51.7,29.84,NW,313,7.0,10.0,76,0.00,,,0.00,Wunderground v.1.12,2013-06-07 18:11:00,
2013-06-07 14:16:00,59.3,51.7,29.84,North,8,5.0,8.0,76,0.00,,,0.00,Wunderground v.1.12,2013-06-07 18:16:00,
2013-06-07 14:21:00,59.5,52.3,29.84,West,279,0.0,5.0,77,0.00,,,0.00,Wunderground v.1.12,2013-06-07 18:21:00,
2013-06-07 14:26:00,59.6,52.0,29.84,NNW,341,5.0,8.0,76,0.00,,,0.00,Wunderground v.1.12,2013-06-07 18:26:00,
2013-06-07 14:31:00,59.8,51.9,29.84,NNE,14,2.0,5.0,75,0.00,,,0.00,Wunderground v.1.12,2013-06-07 18:31:00,
2013-06-07 14:36:00,59.8,52.2,29.84,NNW,343,2.0,5.0,76,0.00,,,0.00,Wunderground v.1.12,2013-06-07 18:36:00,
2013-06-07 14:41:00,59.6,52.0,29.84,NNW,331,5.0,5.0,76,0.00,,,0.00,Wunderground v.1.12,2013-06-07 18:41:00,
2013-06-07 14:47:00,59.6,52.0,29.84,NNW,328,3.0,10.0,76,0.00,,,0.00,Wunderground v.1.12,2013-06-07 18:47:00,
2013-06-07 14:52:00,59.6,52.0,29.84,NNW,339,0.0,5.0,76,0.00,,,0.00,Wunderground v.1.12,2013-06-07 18:52:00,
2013-06-07 14:57:00,59.6,51.7,29.84,NNW,333,6.0,7.0,75,0.00,,,0.00,Wunderground v.1.12,2013-06-07 18:57:00,
2013-06-07 15:03:00,59.6,51.7,29.84,NNW,329,6.0,6.0,75,0.00,,,0.00,Wunderground v.1.12,2013-06-07 19:03:00,
2013-06-07 15:08:00,59.8,51.9,29.84,WNW,293,5.0,5.0,75,0.00,,,0.00,Wunderground v.1.12,2013-06-07 19:08:00,
2013-06-07 15:14:00,59.9,52.0,29.84,NNE,21,0.0,6.0,75,0.00,,,0.00,Wunderground v.1.12,2013-06-07 19:14:00,
2013-06-07 15:19:00,60.2,51.9,29.84,ENE,69,4.0,7.0,74,0.00,,,0.00,Wunderground v.1.12,2013-06-07 19:19:00,
2013-06-07 15:25:00,60.5,51.8,29.84,NNE,19,2.0,4.0,73,0.00,,,0.00,Wunderground v.1.12,2013-06-07 19:25:00,
2013-06-07 15:30:00,60.5,51.4,29.84,NW,325,3.0,4.0,72,0.00,,,0.00,Wunderground v.1.12,2013-06-07 19:30:00,
2013-06-07 15:36:00,60.7,51.6,29.84,NNW,329,5.0,5.0,72,0.00,,,0.00,Wunderground v.1.12,2013-06-07 19:36:00,
2013-06-07 15:41:00,60.7,51.6,29.84,NNW,331,5.0,5.0,72,0.00,,,0.00,Wunderground v.1.12,2013-06-07 19:41:00,
2013-06-07 15:46:00,60.9,52.2,29.84,NNW,345,5.0,7.0,73,0.00,,,0.00,Wunderground v.1.12,2013-06-07 19:46:00,
2013-06-07 15:52:00,61.2,52.5,29.84,NNW,331,9.0,9.0,73,0.00,,,0.00,Wunderground v.1.12,2013-06-07 19:52:00,
2013-06-07 15:57:00,61.2,52.1,29.84,NNE,25,1.0,6.0,72,0.00,,,0.00,Wunderground v.1.12,2013-06-07 19:57:00,
2013-06-07 16:02:00,61.3,51.8,29.84,NNE,23,6.0,6.0,71,0.00,,,0.00,Wunderground v.1.12,2013-06-07 20:02:00,
2013-06-07 16:07:00,61.3,51.8,29.84,North,350,5.0,10.0,71,0.00,,,0.00,Wunderground v.1.12,2013-06-07 20:07:00,
2013-06-07 16:13:00,61.3,51.8,29.84,North,2,4.0,6.0,71,0.00,,,0.00,Wunderground v.1.12,2013-06-07 20:13:00,
2013-06-07 16:18:00,61.3,51.8,29.84,North,4,3.0,6.0,71,0.00,,,0.00,Wunderground v.1.12,2013-06-07 20:18:00,
2013-06-07 16:23:00,61.3,51.4,29.84,NNW,340,4.0,6.0,70,0.00,,,0.00,Wunderground v.1.12,2013-06-07 20:23:00,
2013-06-07 16:28:00,61.2,51.7,29.83,NNW,327,3.0,4.0,71,0.00,,,0.00,Wunderground v.1.12,2013-06-07 20:28:00,
2013-06-07 16:33:00,61.2,51.7,29.83,NNW,329,1.0,4.0,71,0.00,,,0.00,Wunderground v.1.12,2013-06-07 20:33:00,
2013-06-07 16:39:00,61.3,51.4,29.83,NE,39,4.0,6.0,70,0.00,,,0.00,Wunderground v.1.12,2013-06-07 20:39:00,
2013-06-07 16:44:00,61.5,51.6,29.83,North,356,2.0,6.0,70,0.00,,,0.00,Wunderground v.1.12,2013-06-07 20:44:00,
2013-06-07 16:49:00,61.6,51.7,29.83,NNE,22,0.0,7.0,70,0.00,,,0.00,Wunderground v.1.12,2013-06-07 20:49:00,
2013-06-07 16:55:00,61.8,51.9,29.83,NW,321,2.0,3.0,70,0.00,,,0.00,Wunderground v.1.12,2013-06-07 20:55:00,
2013-06-07 17:00:00,61.8,52.3,29.83,North,358,3.0,3.0,71,0.00,,,0.00,Wunderground v.1.12,2013-06-07 21:00:00,
2013-06-07 17:05:00,62.0,52.1,29.83,North,4,0.0,4.0,70,0.00,,,0.00,Wunderground v.1.12,2013-06-07 21:05:00,
2013-06-07 17:10:00,61.8,51.5,29.83,North,358,3.0,5.0,69,0.00,,,0.00,Wunderground v.1.12,2013-06-07 21:10:00,
2013-06-07 17:16:00,61.6,51.7,29.83,NNW,336,1.0,3.0,70,0.00,,,0.00,Wunderground v.1.12,2013-06-07 21:16:00,
2013-06-07 17:21:00,61.6,51.3,29.83,NNW,340,2.0,3.0,69,0.00,,,0.00,Wunderground v.1.12,2013-06-07 21:21:00,
2013-06-07 17:26:00,61.5,51.6,29.83,NNW,345,2.0,5.0,70,0.00,,,0.00,Wunderground v.1.12,2013-06-07 21:26:00,
2013-06-07 17:31:00,61.5,51.6,29.83,NE,47,0.0,7.0,70,0.00,,,0.00,Wunderground v.1.12,2013-06-07 21:31:00,
2013-06-07 17:36:00,61.3,51.4,29.83,NE,35,6.0,7.0,70,0.00,,,0.00,Wunderground v.1.12,2013-06-07 21:36:00,
2013-06-07 17:42:00,61.3,51.8,29.83,NNW,334,7.0,10.0,71,0.00,,,0.00,Wunderground v.1.12,2013-06-07 21:42:00,
2013-06-07 17:47:00,61.2,51.3,29.83,North,350,5.0,6.0,70,0.00,,,0.00,Wunderground v.1.12,2013-06-07 21:47:00,
2013-06-07 17:52:00,61.2,51.7,29.83,North,352,1.0,3.0,71,0.00,,,0.00,Wunderground v.1.12,2013-06-07 21:52:00,
2013-06-07 17:57:00,61.2,51.7,29.83,NNW,339,5.0,8.0,71,0.00,,,0.00,Wunderground v.1.12,2013-06-07 21:57:00,
2013-06-07 18:02:00,61.2,51.7,29.83,NW,321,0.0,5.0,71,0.00,,,0.00,Wunderground v.1.12,2013-06-07 22:02:00,
2013-06-07 18:07:00,61.2,51.7,29.83,NNW,343,1.0,4.0,71,0.00,,,0.00,Wunderground v.1.12,2013-06-07 22:07:00,
2013-06-07 18:12:00,61.2,51.3,29.83,NNW,339,1.0,5.0,70,0.00,,,0.00,Wunderground v.1.12,2013-06-07 22:12:00,
2013-06-07 18:20:00,61.3,51.4,29.83,North,349,3.0,3.0,70,0.00,,,0.00,Wunderground v.1.12,2013-06-07 22:20:00,
2013-06-07 18:25:00,61.3,51.4,29.83,NNW,337,0.0,4.0,70,0.00,,,0.00,Wunderground v.1.12,2013-06-07 22:25:00,
2013-06-07 18:30:00,61.3,51.8,29.83,NNW,343,1.0,3.0,71,0.00,,,0.00,Wunderground v.1.12,2013-06-07 22:30:00,
2013-06-07 18:35:00,61.5,52.0,29.83,NNW,331,3.0,6.0,71,0.00,,,0.00,Wunderground v.1.12,2013-06-07 22:35:00,
2013-06-07 18:41:00,61.5,51.6,29.83,NNW,346,0.0,4.0,70,0.00,,,0.00,Wunderground v.1.12,2013-06-07 22:41:00,
2013-06-07 18:47:00,61.5,51.6,29.83,NNW,345,2.0,3.0,70,0.00,,,0.00,Wunderground v.1.12,2013-06-07 22:47:00,
2013-06-07 18:52:00,61.6,51.7,29.83,NNW,347,1.0,3.0,70,0.00,,,0.00,Wunderground v.1.12,2013-06-07 22:52:00,
2013-06-07 18:57:00,61.6,51.7,29.83,NNE,21,3.0,5.0,70,0.00,,,0.00,Wunderground v.1.12,2013-06-07 22:57:00,
2013-06-07 19:02:00,61.6,52.1,29.83,NNW,333,4.0,6.0,71,0.00,,,0.00,Wunderground v.1.12,2013-06-07 23:02:00,
2013-06-07 19:08:00,61.5,52.0,29.83,NNW,333,3.0,5.0,71,0.00,,,0.00,Wunderground v.1.12,2013-06-07 23:08:00,
2013-06-07 19:13:00,61.3,51.8,29.83,NW,325,1.0,6.0,71,0.00,,,0.00,Wunderground v.1.12,2013-06-07 23:13:00,
2013-06-07 19:19:00,61.3,52.2,29.83,NNW,336,4.0,6.0,72,0.00,,,0.00,Wunderground v.1.12,2013-06-07 23:19:00,
2013-06-07 19:24:00,61.3,51.8,29.83,NNW,329,6.0,6.0,71,0.00,,,0.00,Wunderground v.1.12,2013-06-07 23:24:00,
2013-06-07 19:29:00,61.3,51.8,29.83,North,355,1.0,7.0,71,0.00,,,0.00,Wunderground v.1.12,2013-06-07 23:29:00,
2013-06-07 19:34:00,61.3,51.8,29.83,North,358,0.0,5.0,71,0.00,,,0.00,Wunderground v.1.12,2013-06-07 23:34:00,
2013-06-07 19:40:00,61.3,51.8,29.83,NNE,27,1.0,2.0,71,0.00,,,0.00,Wunderground v.1.12,2013-06-07 23:40:00,
2013-06-07 19:45:00,61.3,51.8,29.83,North,6,2.0,3.0,71,0.00,,,0.00,Wunderground v.1.12,2013-06-07 23:45:00,
2013-06-07 19:50:00,61.2,51.7,29.83,North,5,1.0,2.0,71,0.00,,,0.00,Wunderground v.1.12,2013-06-07 23:50:00,
2013-06-07 19:55:00,61.3,52.2,29.83,NNE,19,0.0,3.0,72,0.00,,,0.00,Wunderground v.1.12,2013-06-07 23:55:00,
2013-06-07 20:00:00,61.3,52.2,29.83,NE,39,4.0,4.0,72,0.00,,,0.00,Wunderground v.1.12,2013-06-08 00:00:00,
2013-06-07 20:05:00,61.2,51.7,29.83,North,11,2.0,2.0,71,0.00,,,0.00,Wunderground v.1.12,2013-06-08 00:05:00,
2013-06-07 20:11:00,61.2,51.7,29.83,NNE,28,2.0,2.0,71,0.00,,,0.00,Wunderground v.1.12,2013-06-08 00:11:00,
2013-06-07 20:16:00,61.0,51.5,29.83,North,1,1.0,3.0,71,0.00,,,0.00,Wunderground v.1.12,2013-06-08 00:16:00,
2013-06-07 20:21:00,61.0,51.5,29.83,North,359,0.0,5.0,71,0.00,,,0.00,Wunderground v.1.12,2013-06-08 00:21:00,
2013-06-07 20:26:00,61.0,51.5,29.83,North,359,0.0,4.0,71,0.00,,,0.00,Wunderground v.1.12,2013-06-08 00:26:00,
2013-06-07 20:32:00,60.9,51.8,29.83,North,9,1.0,4.0,72,0.00,,,0.00,Wunderground v.1.12,2013-06-08 00:32:00,
2013-06-07 20:37:00,60.9,51.8,29.83,NNE,12,0.0,2.0,72,0.00,,,0.00,Wunderground v.1.12,2013-06-08 00:37:00,
2013-06-07 20:42:00,60.9,51.8,29.84,NNE,12,1.0,2.0,72,0.00,,,0.00,Wunderground v.1.12,2013-06-08 00:42:00,
2013-06-07 20:47:00,60.7,51.6,29.84,NNE,12,0.0,1.0,72,0.00,,,0.00,Wunderground v.1.12,2013-06-08 00:47:00,
2013-06-07 20:52:00,60.7,51.6,29.84,NNE,12,0.0,4.0,72,0.00,,,0.00,Wunderground v.1.12,2013-06-08 00:52:00,
2013-06-07 20:57:00,60.5,51.8,29.84,NNE,12,0.0,1.0,73,0.00,,,0.00,Wunderground v.1.12,2013-06-08 00:57:00,
2013-06-07 21:04:00,60.5,51.4,29.84,NNE,12,0.0,3.0,72,0.00,,,0.00,Wunderground v.1.12,2013-06-08 01:04:00,
2013-06-07 21:10:00,60.4,51.3,29.84,NNE,12,0.0,0.0,72,0.00,,,0.00,Wunderground v.1.12,2013-06-08 01:10:00,
2013-06-07 21:15:00,60.4,51.7,29.85,NNE,12,1.0,1.0,73,0.00,,,0.00,Wunderground v.1.12,2013-06-08 01:15:00,
2013-06-07 21:20:00,60.2,51.5,29.85,NNE,12,0.0,0.0,73,0.00,,,0.00,Wunderground v.1.12,2013-06-08 01:20:00,
2013-06-07 21:25:00,60.2,51.5,29.85,NNE,12,0.0,0.0,73,0.00,,,0.00,Wunderground v.1.12,2013-06-08 01:25:00,
2013-06-07 21:30:00,60.1,51.4,29.85,NNE,12,0.0,0.0,73,0.00,,,0.00,Wunderground v.1.12,2013-06-08 01:30:00,
2013-06-07 21:35:00,59.9,51.2,29.85,NNE,12,0.0,0.0,73,0.00,,,0.00,Wunderground v.1.12,2013-06-08 01:35:00,
2013-06-07 21:40:00,59.9,51.6,29.85,NNE,12,1.0,1.0,74,0.00,,,0.00,Wunderground v.1.12,2013-06-08 01:40:00,
2013-06-07 21:45:00,59.8,51.5,29.85,NNE,12,2.0,2.0,74,0.00,,,0.00,Wunderground v.1.12,2013-06-08 01:45:00,
2013-06-07 21:50:00,59.8,51.5,29.85,NNE,12,0.0,1.0,74,0.00,,,0.00,Wunderground v.1.12,2013-06-08 01:50:00,
2013-06-07 21:55:00,59.6,51.7,29.85,NNE,12,0.0,1.0,75,0.00,,,0.00,Wunderground v.1.12,2013-06-08 01:55:00,
2013-06-07 22:01:00,59.5,51.6,29.85,NNE,12,0.0,0.0,75,0.00,,,0.00,Wunderground v.1.12,2013-06-08 02:01:00,
2013-06-07 22:06:00,59.5,51.6,29.85,NNE,12,0.0,1.0,75,0.00,,,0.00,Wunderground v.1.12,2013-06-08 02:06:00,
2013-06-07 22:14:00,59.3,51.4,29.85,NNE,12,0.0,1.0,75,0.00,,,0.00,Wunderground v.1.12,2013-06-08 02:14:00,
2013-06-07 22:20:00,59.3,51.4,29.85,NNE,12,2.0,2.0,75,0.00,,,0.00,Wunderground v.1.12,2013-06-08 02:20:00,
2013-06-07 22:25:00,59.2,51.6,29.85,NNE,12,0.0,0.0,76,0.00,,,0.00,Wunderground v.1.12,2013-06-08 02:25:00,
2013-06-07 22:30:00,59.2,51.6,29.86,NNE,12,1.0,2.0,76,0.00,,,0.00,Wunderground v.1.12,2013-06-08 02:30:00,
2013-06-07 22:36:00,59.2,51.6,29.86,NNE,12,0.0,1.0,76,0.00,,,0.00,Wunderground v.1.12,2013-06-08 02:36:00,
2013-06-07 22:41:00,59.2,51.6,29.86,NNE,12,3.0,3.0,76,0.00,,,0.00,Wunderground v.1.12,2013-06-08 02:41:00,
2013-06-07 22:46:00,59.2,51.6,29.86,NNE,12,0.0,1.0,76,0.00,,,0.00,Wunderground v.1.12,2013-06-08 02:46:00,
2013-06-07 22:52:00,59.2,51.6,29.86,NNE,12,0.0,0.0,76,0.00,,,0.00,Wunderground v.1.12,2013-06-08 02:52:00,
2013-06-07 22:57:00,59.2,51.6,29.86,NNE,12,1.0,1.0,76,0.00,,,0.00,Wunderground v.1.12,2013-06-08 02:57:00,
2013-06-07 23:02:00,59.2,52.0,29.86,NNE,12,2.0,2.0,77,0.00,,,0.00,Wunderground v.1.12,2013-06-08 03:02:00,
2013-06-07 23:07:00,59.2,51.6,29.86,NNE,12,0.0,0.0,76,0.00,,,0.00,Wunderground v.1.12,2013-06-08 03:07:00,
2013-06-07 23:12:00,59.2,51.6,29.86,NNE,12,0.0,0.0,76,0.00,,,0.00,Wunderground v.1.12,2013-06-08 03:12:00,
2013-06-07 23:17:00,59.2,51.6,29.86,NNE,12,0.0,1.0,76,0.00,,,0.00,Wunderground v.1.12,2013-06-08 03:17:00,
2013-06-07 23:22:00,59.0,51.4,29.86,NNE,12,0.0,2.0,76,0.00,,,0.00,Wunderground v.1.12,2013-06-08 03:22:00,
2013-06-07 23:27:00,59.0,51.4,29.86,NNE,32,1.0,4.0,76,0.00,,,0.00,Wunderground v.1.12,2013-06-08 03:27:00,
2013-06-07 23:32:00,59.0,51.4,29.86,ENE,61,2.0,2.0,76,0.00,,,0.00,Wunderground v.1.12,2013-06-08 03:32:00,
2013-06-07 23:37:00,59.0,51.4,29.86,ENE,61,0.0,2.0,76,0.00,,,0.00,Wunderground v.1.12,2013-06-08 03:37:00,
2013-06-07 23:42:00,59.0,51.4,29.86,ENE,59,0.0,3.0,76,0.00,,,0.00,Wunderground v.1.12,2013-06-08 03:42:00,
2013-06-07 23:47:00,59.0,51.4,29.86,ENE,59,0.0,2.0,76,0.00,,,0.00,Wunderground v.1.12,2013-06-08 03:47:00,
2013-06-07 23:52:00,59.0,51.8,29.86,ENE,60,1.0,4.0,77,0.00,,,0.00,Wunderground v.1.12,2013-06-08 03:52:00,
2013-06-07 23:57:00,59.0,51.4,29.86,North,355,3.0,5.0,76,0.00,,,0.00,Wunderground v.1.12,2013-06-08 03:57:00,